Aérodrome :
LOGIN :

S'inscrire | Disclaimer

   EN    FR    IT 

 










Légende :    VFR   VFR Marginal   IFR   IFR Intensif   IFR Très Intensif
Visi : 
Plafond : 
>= 8 km
>= 3000ft
5 à 8 km
1000 à 3000 ft
1500m à 5 km
500 à 1000 ft
800 à 1500m
200 à 500 ft
< 800m
< 200 ft
Symboles :   Orages  Brouillard  Fortes neiges  Fortes précipitations  Vent > 20 kt
SIGMETs :   Divers  Orages  Givrage  Turbulence  Onde Orograph.  Cendres Volcan.






- Altitude de l'aérodrome : 359 ft
- Code IATA : BVA


LFOB - Beauvais

DERNIER METAR :
  • 181230Z AUTO 08005KT 030V130 CAVOK 24/14 Q1021 NOSIG

METARs EXPIRÉS :
  • 181200Z AUTO VRB05KT CAVOK 24/14 Q1021 NOSIG
  • 181130Z AUTO 05005KT 310V110 CAVOK 23/15 Q1021 NOSIG
  • 181100Z AUTO 04005KT 350V100 CAVOK 23/15 Q1021 NOSIG
  • 181030Z AUTO 08006KT 010V150 CAVOK 22/15 Q1022 NOSIG

TAF TAF LFOB
Valide du 18 à 12h jusqu'au 19 à 12h UTC


181100Z 1812/1912 VRB02KT CAVOK
PROB40
TEMPO 1822/1902 VRB20G35KT 2000 TSRAGS BKN070CB
PROB40
TEMPO 1902/1905 VRB20G35KT 2000 TSRA BKN070CB
ATIS : +33 3 44 11 49 28



MET'MAP, la Météo Aéronautique d'un coup d'oeil ! - Copyright ORBIFLY Décembre 2007 - Disclaimer

ORBIFLY MET'MAP TEAM :

Programmation & Développement : Alexandra Zaïnal
Sur une idée originale de : Baudouin d'Aumeries
Soutien technique & logistique : Manuel Goepfert
Assistance : Marc-Olivier Méhu

Contact : metmap@orbifly.com




SOURCES & CREDITS :

   NOAA